Time;durP1;ratioP1;P1;durP2;ratioP2;P2;SDS_P1;SDS_P2;PMS_P1;PMS_P2;Temp;Humidity;BMP_temperature;BMP_pressure;BME280_temperature;BME280_humidity;BME280_pressure;Samples;Min_cycle;Max_cycle;Signal;HPM_P1;HPM_P2
2023/06/22 00:01:21;;;;;;;;;;;;;;;19.96;68.12;101343.20;107595;1256;73440;-83
2023/06/22 00:03:56;;;;;;;;;;;;;;;19.92;68.07;101341.80;107362;1254;124330;-84
2023/06/22 00:06:24;;;;;;;;;;;;;;;19.87;68.18;101347.52;107711;1255;72695;-83
2023/06/22 00:08:51;;;;;;;;;;;;;;;19.82;68.26;101348.61;109081;1254;124195;-84
2023/06/22 00:11:20;;;;;;;;;;;;;;;19.77;68.25;101353.08;107582;1254;60164;-83
2023/06/22 00:13:47;;;;;;;;;;;;;;;19.73;68.38;101357.36;107661;1254;72680;-83
2023/06/22 00:16:14;;;;;;;;;;;;;;;19.69;68.51;101358.58;107342;1257;124313;-82
2023/06/22 00:18:46;;;;;;;;;;;;;;;19.64;68.53;101358.41;107666;1254;71419;-84
2023/06/22 00:21:14;;;;;;;;;;;;;;;19.59;68.70;101356.65;107644;1254;125016;-82
2023/06/22 00:23:44;;;;;;;;;;;;;;;19.54;68.79;101352.56;107910;1254;60224;-82
2023/06/22 00:26:11;;;;;;;;;;;;;;;19.48;68.89;101353.64;107948;1257;72358;-82
2023/06/22 00:28:38;;;;;;;;;;;;;;;19.43;69.00;101351.35;107935;1257;68958;-82
2023/06/22 00:31:06;;;;;;;;;;;;;;;19.38;69.12;101354.02;107668;1257;71424;-82
2023/06/22 00:33:33;;;;;;;;;;;;;;;19.34;69.30;101354.93;107467;1254;124419;-82
2023/06/22 00:36:02;;;;;;;;;;;;;;;19.31;69.32;101357.42;107625;1257;60417;-82
2023/06/22 00:38:29;;;;;;;;;;;;;;;19.27;69.46;101357.96;107670;1254;125147;-82
2023/06/22 00:40:56;;;;;;;;;;;;;;;19.24;69.69;101361.35;107774;1254;66155;-83
2023/06/22 00:43:23;;;;;;;;;;;;;;;19.21;69.75;101355.83;107611;1255;71280;-83
2023/06/22 00:45:50;;;;;;;;;;;;;;;19.17;69.78;101354.77;107586;1254;125109;-83
2023/06/22 00:48:23;;;;;;;;;;;;;;;19.15;69.78;101354.77;107666;1257;60437;-83
2023/06/22 00:50:53;;;;;;;;;;;;;;;19.13;69.86;101361.53;107633;1257;124787;-83
2023/06/22 00:53:21;;;;;;;;;;;;;;;19.11;69.91;101361.00;107871;1257;65559;-83
2023/06/22 00:55:51;;;;;;;;;;;;;;;19.09;69.95;101356.19;107923;1254;72691;-83
2023/06/22 00:58:21;;;;;;;;;;;;;;;19.08;69.99;101361.35;107563;1254;124412;-83
2023/06/22 01:00:48;;;;;;;;;;;;;;;19.06;69.91;101365.63;107780;1254;59661;-82
2023/06/22 01:03:16;;;;;;;;;;;;;;;19.05;69.99;101364.58;107499;1254;125131;-82
2023/06/22 01:05:46;;;;;;;;;;;;;;;19.02;70.10;101368.11;108989;1254;65596;-82
2023/06/22 01:08:22;;;;;;;;;;;;;;;19.01;70.13;101369.19;109102;1255;125151;-82
2023/06/22 01:11:09;;;;;;;;;;;;;;;18.99;70.19;101366.88;109152;1254;59272;-83
2023/06/22 01:13:56;;;;;;;;;;;;;;;18.98;70.27;101362.96;108267;1254;59230;-82
2023/06/22 01:16:27;;;;;;;;;;;;;;;18.96;70.36;101359.23;107228;1260;124987;-82
2023/06/22 01:18:55;;;;;;;;;;;;;;;18.94;70.43;101354.23;107336;1260;66983;-82
2023/06/22 01:21:22;;;;;;;;;;;;;;;18.93;70.47;101347.83;107249;1260;124395;-82
2023/06/22 01:23:52;;;;;;;;;;;;;;;18.92;70.58;101342.68;107225;1260;60018;-82
2023/06/22 01:26:20;;;;;;;;;;;;;;;18.90;70.67;101345.71;107211;1259;124847;-82
2023/06/22 01:28:53;;;;;;;;;;;;;;;18.89;70.68;101346.05;107268;1259;73976;-83
2023/06/22 01:31:22;;;;;;;;;;;;;;;18.88;70.75;101350.48;107200;1265;67054;-83
2023/06/22 01:33:54;;;;;;;;;;;;;;;18.87;70.80;101348.91;107421;1260;124423;-82
2023/06/22 01:36:21;;;;;;;;;;;;;;;18.85;70.76;101353.17;107610;1260;60530;-83
2023/06/22 01:38:48;;;;;;;;;;;;;;;18.82;70.94;101356.02;107160;1260;124062;-83
2023/06/22 01:41:16;;;;;;;;;;;;;;;18.79;70.97;101358.83;107413;1260;73884;-82
2023/06/22 01:43:44;;;;;;;;;;;;;;;18.76;71.13;101361.48;107259;1263;65464;-82
2023/06/22 01:46:19;;;;;;;;;;;;;;;18.72;71.17;101354.02;107046;1263;124228;-83
2023/06/22 01:48:46;;;;;;;;;;;;;;;18.67;71.36;101358.45;107525;1260;59376;-83
2023/06/22 01:51:13;;;;;;;;;;;;;;;18.63;71.50;101360.93;107520;1260;59991;-83
2023/06/22 01:53:40;;;;;;;;;;;;;;;18.60;71.51;101359.15;107375;1253;71909;-82
2023/06/22 01:56:08;;;;;;;;;;;;;;;18.57;71.69;101357.02;107708;1259;66716;-82
2023/06/22 01:58:37;;;;;;;;;;;;;;;18.56;71.80;101355.59;107560;1258;125354;-82
2023/06/22 02:01:10;;;;;;;;;;;;;;;18.54;71.88;101360.73;107636;1254;59637;-82
2023/06/22 02:03:43;;;;;;;;;;;;;;;18.52;72.04;101359.14;107824;1257;124317;-81
2023/06/22 02:06:16;;;;;;;;;;;;;;;18.51;72.13;101359.14;107737;1259;72238;-83
2023/06/22 02:08:47;;;;;;;;;;;;;;;18.49;72.31;101359.67;107602;1257;125561;-84
2023/06/22 02:11:15;;;;;;;;;;;;;;;18.47;72.41;101359.84;107795;1255;73748;-83
2023/06/22 02:13:43;;;;;;;;;;;;;;;18.46;72.52;101355.21;107564;1259;59384;-82
2023/06/22 02:16:12;;;;;;;;;;;;;;;18.46;72.59;101358.42;107521;1257;125065;-83
2023/06/22 02:18:40;;;;;;;;;;;;;;;18.46;72.72;101364.10;107782;1254;73924;-83
2023/06/22 02:21:19;;;;;;;;;;;;;;;18.46;72.76;101366.59;107650;1257;124402;-83
2023/06/22 02:23:46;;;;;;;;;;;;;;;18.46;72.99;101364.80;107802;1258;72499;-83
2023/06/22 02:26:13;;;;;;;;;;;;;;;18.47;73.04;101375.66;107793;1258;60651;-83
2023/06/22 02:28:40;;;;;;;;;;;;;;;18.49;73.11;101377.80;107825;1255;124450;-83
2023/06/22 02:31:07;;;;;;;;;;;;;;;18.52;73.12;101379.58;108156;1254;72954;-83
2023/06/22 02:33:35;;;;;;;;;;;;;;;18.54;73.20;101384.73;107853;1255;124589;-82
2023/06/22 02:36:05;;;;;;;;;;;;;;;18.57;73.29;101385.63;107732;1259;72690;-83
2023/06/22 02:38:35;;;;;;;;;;;;;;;18.60;73.42;101384.92;107726;1259;125172;-83
2023/06/22 02:41:02;;;;;;;;;;;;;;;18.61;73.44;101384.21;108976;1260;60141;-84
2023/06/22 02:43:29;;;;;;;;;;;;;;;18.65;73.50;101387.42;108706;1257;73886;-83
2023/06/22 02:45:56;;;;;;;;;;;;;;;18.70;73.51;101387.98;107522;1254;124564;-83
2023/06/22 02:48:24;;;;;;;;;;;;;;;18.75;73.58;101389.75;107751;1255;70152;-83
2023/06/22 02:50:52;;;;;;;;;;;;;;;18.79;73.55;101396.89;107710;1255;124729;-84
2023/06/22 02:53:20;;;;;;;;;;;;;;;18.86;73.55;101400.65;107603;1259;60445;-84
2023/06/22 02:55:47;;;;;;;;;;;;;;;18.92;73.56;101407.23;107822;1255;73862;-84
2023/06/22 02:58:14;;;;;;;;;;;;;;;18.98;73.57;101407.05;107446;1259;124497;-84
2023/06/22 03:00:42;;;;;;;;;;;;;;;19.05;73.55;101407.77;107537;1254;71358;-83
2023/06/22 03:03:09;;;;;;;;;;;;;;;19.10;73.50;101407.42;107544;1260;124455;-84
2023/06/22 03:05:36;;;;;;;;;;;;;;;19.16;73.56;101401.20;107642;1253;60377;-84
2023/06/22 03:08:04;;;;;;;;;;;;;;;19.23;73.46;101402.80;107543;1254;73052;-83
2023/06/22 03:10:31;;;;;;;;;;;;;;;19.30;73.59;101404.04;107834;1254;124991;-84
2023/06/22 03:13:04;;;;;;;;;;;;;;;19.39;73.50;101403.86;107969;1257;72923;-83
2023/06/22 03:15:39;;;;;;;;;;;;;;;19.52;73.44;101408.64;107683;1255;124582;-83
2023/06/22 03:18:18;;;;;;;;;;;;;;;19.66;73.26;101418.23;107664;1254;60168;-85
2023/06/22 03:20:51;;;;;;;;;;;;;;;19.79;73.14;101414.33;107275;1260;125001;-85
2023/06/22 03:23:18;;;;;;;;;;;;;;;19.92;73.00;101422.84;107433;1259;67068;-85
2023/06/22 03:25:59;;;;;;;;;;;;;;;20.05;72.85;101429.03;107831;1259;71397;-84
2023/06/22 03:28:27;;;;;;;;;;;;;;;20.22;72.73;101429.15;107747;1254;124769;-84
2023/06/22 03:30:54;;;;;;;;;;;;;;;20.44;72.61;101430.13;107651;1254;60671;-84
2023/06/22 03:33:23;;;;;;;;;;;;;;;20.67;72.38;101439.32;107360;1259;124629;-84
2023/06/22 03:35:58;;;;;;;;;;;;;;;20.84;71.76;101447.05;107822;1254;67018;-84
2023/06/22 03:38:25;;;;;;;;;;;;;;;20.98;71.39;101444.11;107848;1254;124673;-83
2023/06/22 03:40:53;;;;;;;;;;;;;;;21.11;71.18;101445.61;107736;1254;59845;-84
2023/06/22 03:43:49;;;;;;;;;;;;;;;21.28;70.75;101445.14;107524;1255;60451;-85
2023/06/22 03:46:16;;;;;;;;;;;;;;;21.44;70.23;101450.54;107415;1257;123716;-84
2023/06/22 03:48:43;;;;;;;;;;;;;;;21.70;70.27;101442.27;107502;1254;65894;-83
2023/06/22 03:51:10;;;;;;;;;;;;;;;22.57;70.85;101443.77;107465;1255;124105;-81
2023/06/22 03:53:37;;;;;;;;;;;;;;;23.76;70.03;101443.32;107667;1258;60493;-83
2023/06/22 03:56:04;;;;;;;;;;;;;;;25.08;68.57;101451.48;107496;1254;60886;-82
2023/06/22 03:58:33;;;;;;;;;;;;;;;26.15;66.09;101449.28;107445;1258;124984;-83
2023/06/22 04:01:00;;;;;;;;;;;;;;;26.76;63.85;101455.77;107849;1257;65516;-82
2023/06/22 04:03:27;;;;;;;;;;;;;;;27.20;62.08;101457.23;108467;1254;123940;-85
2023/06/22 04:05:54;;;;;;;;;;;;;;;27.76;61.17;101467.63;107577;1254;60373;-83
2023/06/22 04:08:24;;;;;;;;;;;;;;;28.56;60.15;101472.13;107606;1254;124379;-83
2023/06/22 04:10:51;;;;;;;;;;;;;;;29.24;58.44;101476.64;107263;1258;73818;-83
2023/06/22 04:13:18;;;;;;;;;;;;;;;29.85;57.18;101481.66;107419;1255;59050;-82
2023/06/22 04:15:45;;;;;;;;;;;;;;;30.52;55.71;101489.88;107251;1257;124226;-84
2023/06/22 04:18:13;;;;;;;;;;;;;;;31.19;54.38;101490.50;107299;1258;60414;-84
2023/06/22 04:20:40;;;;;;;;;;;;;;;31.65;52.24;101493.08;107133;1261;124113;-84
2023/06/22 04:23:07;;;;;;;;;;;;;;;31.87;51.26;101490.32;107284;1256;64023;-84
2023/06/22 04:25:34;;;;;;;;;;;;;;;32.27;49.97;101485.64;107243;1261;263066;-83
2023/06/22 04:28:04;;;;;;;;;;;;;;;32.42;48.54;101480.16;107442;1259;123915;-81
2023/06/22 04:30:32;;;;;;;;;;;;;;;32.61;47.76;101477.46;107818;1255;60114;-82
2023/06/22 04:33:00;;;;;;;;;;;;;;;33.13;47.32;101484.67;107637;1257;123922;-81
2023/06/22 04:35:28;;;;;;;;;;;;;;;33.64;46.37;101484.77;107692;1256;65296;-82
2023/06/22 04:37:58;;;;;;;;;;;;;;;34.29;45.84;101484.09;107753;1256;58831;-82
2023/06/22 04:40:25;;;;;;;;;;;;;;;34.98;44.77;101486.59;107597;1260;124743;-83
2023/06/22 04:42:53;;;;;;;;;;;;;;;35.25;43.02;101490.30;107452;1257;60921;-82
2023/06/22 04:45:21;;;;;;;;;;;;;;;35.33;42.51;101496.66;107296;1257;123738;-81
2023/06/22 04:47:49;;;;;;;;;;;;;;;35.91;42.24;101497.44;107182;1257;65248;-87
2023/06/22 04:50:19;;;;;;;;;;;;;;;36.68;41.58;101500.04;107170;1257;60504;-84
2023/06/22 04:53:21;;;;;;;;;;;;;;;37.31;40.36;101503.01;107589;1254;64075;-89
2023/06/22 04:56:09;;;;;;;;;;;;;;;37.44;38.94;101497.47;107184;1256;59377;-86
2023/06/22 04:58:40;;;;;;;;;;;;;;;36.36;38.30;101495.69;107405;1258;123663;-90
2023/06/22 05:01:37;;;;;;;;;;;;;;;34.88;38.33;101498.10;107251;1260;65861;-88
2023/06/22 05:04:23;;;;;;;;;;;;;;;33.01;38.63;101500.73;108001;1257;122891;-89
2023/06/22 05:07:02;;;;;;;;;;;;;;;31.51;40.13;101494.85;107766;1256;63000;-88
2023/06/22 05:09:33;;;;;;;;;;;;;;;30.90;41.01;101496.95;107343;1254;123849;-89
2023/06/22 05:12:02;;;;;;;;;;;;;;;31.40;42.30;101494.52;107417;1254;60386;-84
2023/06/22 05:14:34;;;;;;;;;;;;;;;32.51;41.49;101494.14;107229;1257;65278;-85
2023/06/22 05:17:13;;;;;;;;;;;;;;;32.79;40.57;101501.20;107133;1257;61066;-89
2023/06/22 05:19:50;;;;;;;;;;;;;;;32.97;40.62;101503.80;107412;1257;63646;-88
2023/06/22 05:22:32;;;;;;;;;;;;;;;32.92;39.82;101507.36;107135;1257;123954;-87
2023/06/22 05:25:17;;;;;;;;;;;;;;;31.87;39.49;101503.19;107291;1257;61369;-88
2023/06/22 05:27:54;;;;;;;;;;;;;;;30.90;40.38;101504.39;107416;1258;124168;-88
2023/06/22 05:30:26;;;;;;;;;;;;;;;30.12;40.71;101506.52;107303;1257;59615;-89
2023/06/22 05:32:53;;;;;;;;;;;;;;;29.33;41.49;101509.69;107452;1256;124296;-88
2023/06/22 05:35:20;;;;;;;;;;;;;;;29.07;42.15;101512.56;107448;1256;60406;-88
2023/06/22 05:37:48;;;;;;;;;;;;;;;29.21;42.58;101508.20;107288;1257;59041;-88
2023/06/22 05:40:21;;;;;;;;;;;;;;;29.06;42.17;101509.37;107049;1256;123796;-86
2023/06/22 05:42:48;;;;;;;;;;;;;;;28.76;42.42;101511.43;107020;1257;59948;-87
2023/06/22 05:45:17;;;;;;;;;;;;;;;28.53;42.80;101522.77;107082;1257;124072;-87
2023/06/22 05:47:44;;;;;;;;;;;;;;;28.29;42.87;101522.75;107570;1257;60251;-86
2023/06/22 05:50:26;;;;;;;;;;;;;;;27.99;43.10;101528.50;107412;1256;59736;-87
2023/06/22 05:52:54;;;;;;;;;;;;;;;27.72;43.64;101527.27;107307;1256;73218;-87
2023/06/22 05:55:32;;;;;;;;;;;;;;;27.59;43.58;101523.73;107657;1254;65800;-87
2023/06/22 05:57:59;;;;;;;;;;;;;;;27.30;43.50;101516.40;107546;1254;71447;-87
2023/06/22 06:00:35;;;;;;;;;;;;;;;27.09;43.73;101521.02;107433;1256;60533;-87
2023/06/22 06:03:24;;;;;;;;;;;;;;;26.85;44.11;101529.14;107348;1254;124314;-88
2023/06/22 06:05:55;;;;;;;;;;;;;;;26.63;44.27;101537.17;107559;1254;73101;-88
2023/06/22 06:08:38;;;;;;;;;;;;;;;26.40;44.53;101539.45;107484;1254;68289;-88
2023/06/22 06:11:05;;;;;;;;;;;;;;;26.15;44.91;101541.77;107662;1254;71356;-87
2023/06/22 06:13:53;;;;;;;;;;;;;;;26.05;45.41;101546.52;107463;1255;60661;-90
2023/06/22 06:16:32;;;;;;;;;;;;;;;25.96;45.29;101551.23;107593;1257;123733;-88
2023/06/22 06:19:08;;;;;;;;;;;;;;;25.73;45.52;101548.02;107535;1254;74274;-88
2023/06/22 06:21:51;;;;;;;;;;;;;;;25.51;45.83;101538.15;107444;1257;124099;-88
2023/06/22 06:24:23;;;;;;;;;;;;;;;25.27;46.17;101534.95;107601;1254;72497;-87
2023/06/22 06:26:52;;;;;;;;;;;;;;;25.10;46.48;101532.45;107671;1254;124194;-87
2023/06/22 06:29:19;;;;;;;;;;;;;;;24.92;46.61;101531.05;107672;1254;58720;-88
2023/06/22 06:31:48;;;;;;;;;;;;;;;24.79;47.10;101528.13;107566;1256;72404;-88
2023/06/22 06:34:15;;;;;;;;;;;;;;;24.76;47.08;101528.72;107316;1254;124379;-87
2023/06/22 06:36:54;;;;;;;;;;;;;;;24.73;47.27;101523.59;107473;1254;71632;-88
2023/06/22 06:39:21;;;;;;;;;;;;;;;24.73;47.26;101523.05;107336;1260;124003;-88
2023/06/22 06:41:56;;;;;;;;;;;;;;;24.63;47.17;101527.20;107915;1254;60140;-88
2023/06/22 06:44:24;;;;;;;;;;;;;;;24.59;47.45;101523.52;107839;1254;73876;-89
2023/06/22 06:46:54;;;;;;;;;;;;;;;24.60;47.51;101525.11;107675;1254;124509;-87
2023/06/22 06:49:21;;;;;;;;;;;;;;;24.63;47.61;101526.48;107509;1254;72872;-87
2023/06/22 06:51:48;;;;;;;;;;;;;;;24.56;47.60;101530.23;107461;1254;124663;-87
2023/06/22 06:54:17;;;;;;;;;;;;;;;24.55;47.76;101532.02;107756;1253;61270;-87
2023/06/22 06:56:47;;;;;;;;;;;;;;;24.65;47.99;101543.84;107556;1254;124399;-87
2023/06/22 06:59:21;;;;;;;;;;;;;;;24.72;47.97;101549.45;107576;1253;65922;-87
2023/06/22 07:01:57;;;;;;;;;;;;;;;24.78;47.98;101550.95;107417;1254;71427;-87
2023/06/22 07:04:26;;;;;;;;;;;;;;;24.89;47.84;101547.64;107378;1254;124804;-86
2023/06/22 07:06:53;;;;;;;;;;;;;;;24.91;47.73;101549.93;107259;1254;61465;-87
2023/06/22 07:09:28;;;;;;;;;;;;;;;24.94;47.67;101552.95;107059;1257;123985;-87
2023/06/22 07:11:58;;;;;;;;;;;;;;;24.87;47.45;101553.61;107305;1254;65897;-87
2023/06/22 07:14:40;;;;;;;;;;;;;;;24.79;47.54;101555.58;107459;1257;72366;-86
2023/06/22 07:17:13;;;;;;;;;;;;;;;24.66;47.41;101549.94;107452;1254;60571;-87
2023/06/22 07:20:01;;;;;;;;;;;;;;;24.54;47.51;101550.54;107390;1254;59610;-87
2023/06/22 07:25:38;;;;;;;;;;;;;;;24.32;47.72;101553.10;107551;1257;65741;-89
2023/06/22 07:28:25;;;;;;;;;;;;;;;24.38;47.88;101553.15;107052;1254;123774;-87
2023/06/22 07:30:54;;;;;;;;;;;;;;;24.51;47.97;101552.20;107239;1258;60540;-86
2023/06/22 07:33:21;;;;;;;;;;;;;;;24.63;47.83;101553.22;107396;1254;123994;-86
2023/06/22 07:35:51;;;;;;;;;;;;;;;24.77;47.81;101558.33;107526;1254;74365;-87
2023/06/22 07:38:29;;;;;;;;;;;;;;;24.90;47.60;101563.05;107540;1254;67054;-86
2023/06/22 07:41:05;;;;;;;;;;;;;;;24.98;47.35;101557.88;107444;1254;123524;-86
2023/06/22 07:43:34;;;;;;;;;;;;;;;24.94;47.15;101555.45;107468;1254;61083;-87
2023/06/22 07:46:01;;;;;;;;;;;;;;;24.93;47.06;101550.06;107399;1254;124075;-86
2023/06/22 07:48:39;;;;;;;;;;;;;;;24.96;46.95;101556.66;107362;1253;73605;-88
2023/06/22 07:51:14;;;;;;;;;;;;;;;25.00;46.62;101557.64;107345;1254;124244;-88
2023/06/22 07:53:51;;;;;;;;;;;;;;;25.05;46.72;101562.92;107506;1255;72722;-87
2023/06/22 07:56:20;;;;;;;;;;;;;;;25.15;46.77;101565.55;107524;1254;60202;-87
2023/06/22 07:58:47;;;;;;;;;;;;;;;25.21;46.73;101573.15;107320;1257;124112;-88
2023/06/22 08:01:20;;;;;;;;;;;;;;;25.19;46.35;101576.42;107372;1254;73873;-86
2023/06/22 08:04:12;;;;;;;;;;;;;;;25.09;46.11;101579.00;107290;1259;124615;-87
2023/06/22 08:06:42;;;;;;;;;;;;;;;25.07;46.04;101583.52;107551;1254;71039;-87
2023/06/22 08:09:12;;;;;;;;;;;;;;;24.94;45.84;101585.06;107460;1254;124087;-88
2023/06/22 08:11:51;;;;;;;;;;;;;;;24.83;46.06;101586.90;107632;1254;61300;-87
2023/06/22 08:14:18;;;;;;;;;;;;;;;24.91;45.96;101591.23;107511;1259;73564;-86
2023/06/22 08:17:05;;;;;;;;;;;;;;;25.06;45.90;101590.73;107305;1254;124006;-88
2023/06/22 08:19:44;;;;;;;;;;;;;;;25.28;45.60;101581.45;107575;1253;72695;-86
2023/06/22 08:22:12;;;;;;;;;;;;;;;25.46;45.44;101579.23;107362;1254;123866;-86
2023/06/22 08:24:39;;;;;;;;;;;;;;;25.69;45.11;101571.86;107511;1254;60792;-88
2023/06/22 08:27:08;;;;;;;;;;;;;;;25.93;44.85;101580.43;107394;1253;123983;-88
2023/06/22 08:30:11;;;;;;;;;;;;;;;26.09;44.57;101577.53;107454;1259;67174;-88
2023/06/22 08:33:10;;;;;;;;;;;;;;;26.17;44.48;101578.21;107202;1259;70124;-90
2023/06/22 08:35:46;;;;;;;;;;;;;;;26.22;44.30;101581.49;107207;1259;59308;-89
2023/06/22 08:38:18;;;;;;;;;;;;;;;26.11;44.11;101576.02;107349;1259;60355;-89
2023/06/22 08:40:57;;;;;;;;;;;;;;;26.09;44.13;101573.02;107135;1259;124114;-88
2023/06/22 08:43:24;;;;;;;;;;;;;;;26.17;44.04;101572.63;107199;1259;67811;-89
2023/06/22 08:45:58;;;;;;;;;;;;;;;26.09;43.68;101578.43;107268;1260;124125;-88
2023/06/22 08:48:32;;;;;;;;;;;;;;;25.91;43.69;101578.88;107554;1258;59171;-89
2023/06/22 08:50:59;;;;;;;;;;;;;;;25.87;43.65;101580.23;107457;1261;125032;-88
2023/06/22 08:53:31;;;;;;;;;;;;;;;25.84;43.93;101577.95;107194;1262;71562;-88
2023/06/22 08:56:06;;;;;;;;;;;;;;;25.83;43.79;101586.09;107176;1260;65782;-88
2023/06/22 08:58:35;;;;;;;;;;;;;;;25.83;43.83;101590.03;107317;1259;123790;-88
2023/06/22 09:01:03;;;;;;;;;;;;;;;25.86;43.97;101587.27;107577;1256;59209;-87
2023/06/22 09:03:37;;;;;;;;;;;;;;;25.90;43.88;101582.66;107720;1254;124178;-89
2023/06/22 09:06:45;;;;;;;;;;;;;;;;;;;;;
2023/06/22 09:09:21;;;;;;;;;;;;;;;25.75;42.96;101573.70;107736;1254;124380;-88
2023/06/22 09:11:49;;;;;;;;;;;;;;;25.55;42.93;101575.78;107315;1254;72356;-88
2023/06/22 09:14:16;;;;;;;;;;;;;;;25.51;43.11;101580.38;107193;1254;60406;-88
2023/06/22 09:16:46;;;;;;;;;;;;;;;25.43;42.97;101576.81;107100;1254;124189;-88
2023/06/22 09:19:13;;;;;;;;;;;;;;;25.42;43.19;101573.97;107172;1254;76596;-88
2023/06/22 09:21:40;;;;;;;;;;;;;;;25.49;43.36;101571.81;107202;1254;123897;-89
2023/06/22 09:24:19;;;;;;;;;;;;;;;25.51;42.84;101572.13;107300;1254;71428;-88
2023/06/22 09:26:47;;;;;;;;;;;;;;;25.48;42.63;101568.62;107333;1254;60403;-87
2023/06/22 09:29:27;;;;;;;;;;;;;;;25.42;42.47;101573.96;107201;1254;124107;-87
2023/06/22 09:31:55;;;;;;;;;;;;;;;25.34;42.57;101578.81;107339;1256;73895;-87
2023/06/22 09:34:35;;;;;;;;;;;;;;;25.25;42.30;101579.20;107337;1257;124048;-86
2023/06/22 09:37:34;;;;;;;;;;;;;;;25.13;42.67;101566.14;107771;1254;71388;-87
2023/06/22 09:40:10;;;;;;;;;;;;;;;25.16;42.73;101576.66;107684;1254;124003;-88
2023/06/22 09:42:44;;;;;;;;;;;;;;;25.14;42.67;101570.09;107451;1256;59946;-85
2023/06/22 09:45:25;;;;;;;;;;;;;;;25.13;42.79;101567.23;107252;1255;72596;-89
2023/06/22 09:47:57;;;;;;;;;;;;;;;25.11;42.65;101569.96;107341;1254;67060;-88
2023/06/22 09:50:31;;;;;;;;;;;;;;;25.10;42.92;101567.48;107501;1254;72706;-87
2023/06/22 09:52:59;;;;;;;;;;;;;;;25.18;43.11;101566.95;107170;1256;60157;-87
2023/06/22 09:55:27;;;;;;;;;;;;;;;25.29;43.24;101565.98;107374;1257;59946;-87
2023/06/22 09:58:01;;;;;;;;;;;;;;;25.43;43.36;101565.14;107292;1254;124195;-88
2023/06/22 10:00:29;;;;;;;;;;;;;;;25.50;43.25;101565.49;107585;1254;67563;-87
2023/06/22 10:02:57;;;;;;;;;;;;;;;25.55;43.24;101565.18;107667;1254;72539;-89
2023/06/22 10:05:31;;;;;;;;;;;;;;;25.63;43.20;101557.46;107072;1254;123942;-89
2023/06/22 10:07:58;;;;;;;;;;;;;;;25.61;42.95;101549.22;107035;1254;60175;-89
2023/06/22 10:10:25;;;;;;;;;;;;;;;25.64;42.96;101557.27;107102;1254;124231;-89
2023/06/22 10:12:54;;;;;;;;;;;;;;;25.66;42.95;101556.84;107188;1254;65792;-89
2023/06/22 10:15:30;;;;;;;;;;;;;;;25.76;42.74;101552.64;107364;1254;124465;-89
2023/06/22 10:18:06;;;;;;;;;;;;;;;25.86;42.72;101558.86;107300;1254;59085;-89
2023/06/22 10:20:42;;;;;;;;;;;;;;;25.92;42.72;101557.28;107399;1259;59185;-88
2023/06/22 10:23:09;;;;;;;;;;;;;;;25.94;42.44;101552.73;107075;1254;123864;-88
2023/06/22 10:25:50;;;;;;;;;;;;;;;26.00;42.32;101547.55;107546;1254;66885;-87
2023/06/22 10:28:19;;;;;;;;;;;;;;;26.11;42.31;101559.48;107575;1254;124332;-90
2023/06/22 10:30:53;;;;;;;;;;;;;;;26.17;42.08;101561.83;107674;1254;60053;-89
2023/06/22 10:33:20;;;;;;;;;;;;;;;26.26;42.32;101563.56;107419;1254;124063;-89
2023/06/22 10:35:47;;;;;;;;;;;;;;;26.44;42.01;101562.55;107406;1254;73911;-88
2023/06/22 10:38:39;;;;;;;;;;;;;;;26.63;41.73;101569.94;107643;1255;67141;-88
2023/06/22 10:41:12;;;;;;;;;;;;;;;26.81;41.41;101563.48;107200;1254;124749;-87
2023/06/22 10:43:45;;;;;;;;;;;;;;;26.98;41.20;101561.88;107332;1254;58501;-87
2023/06/22 10:46:15;;;;;;;;;;;;;;;27.11;41.08;101555.91;107444;1254;124314;-87
2023/06/22 10:48:48;;;;;;;;;;;;;;;27.21;40.86;101554.13;107670;1254;74353;-88
2023/06/22 10:51:28;;;;;;;;;;;;;;;27.31;40.66;101551.34;107211;1254;124483;-88
2023/06/22 10:54:01;;;;;;;;;;;;;;;27.29;40.18;101554.83;107280;1254;72874;-88
2023/06/22 10:56:33;;;;;;;;;;;;;;;27.23;40.07;101553.17;107244;1254;60556;-88
2023/06/22 10:59:03;;;;;;;;;;;;;;;27.09;39.91;101549.48;107129;1254;124064;-88
2023/06/22 11:01:40;;;;;;;;;;;;;;;27.03;39.89;101547.86;107435;1254;72568;-87
2023/06/22 11:04:13;;;;;;;;;;;;;;;26.98;39.75;101542.06;107251;1254;123999;-90
2023/06/22 11:06:58;;;;;;;;;;;;;;;26.94;39.85;101550.65;107178;1256;71438;-87
2023/06/22 11:09:31;;;;;;;;;;;;;;;26.80;39.41;101561.71;107143;1255;124354;-88
2023/06/22 11:12:01;;;;;;;;;;;;;;;26.61;39.58;101551.80;107693;1254;60425;-88
2023/06/22 11:14:38;;;;;;;;;;;;;;;26.60;39.90;101547.89;107774;1253;74799;-88
2023/06/22 11:17:41;;;;;;;;;;;;;;;26.62;39.93;101549.11;107608;1253;123666;-88
2023/06/22 11:23:17;;;;;;;;;;;;;;;26.84;39.86;101542.50;107348;1256;123935;-87
2023/06/22 11:26:05;;;;;;;;;;;;;;;27.04;39.92;101538.10;107378;1254;60408;-89
2023/06/22 11:28:33;;;;;;;;;;;;;;;27.35;39.48;101540.20;107512;1253;123986;-89
2023/06/22 11:31:07;;;;;;;;;;;;;;;27.52;39.11;101536.95;107723;1253;67003;-87
2023/06/22 11:33:35;;;;;;;;;;;;;;;27.50;38.93;101534.14;107749;1254;124246;-87
2023/06/22 11:36:15;;;;;;;;;;;;;;;27.42;38.85;101536.39;107798;1254;59678;-88
2023/06/22 11:38:42;;;;;;;;;;;;;;;27.58;39.12;101534.96;107825;1254;58979;-87
2023/06/22 11:41:17;;;;;;;;;;;;;;;27.79;38.95;101537.11;107668;1254;123308;-87
2023/06/22 11:43:45;;;;;;;;;;;;;;;27.90;38.66;101535.48;107615;1254;67812;-87
2023/06/22 11:46:18;;;;;;;;;;;;;;;27.90;38.43;101540.19;107483;1254;123753;-87
2023/06/22 11:49:00;;;;;;;;;;;;;;;27.85;38.34;101540.69;107694;1254;60691;-88
2023/06/22 11:51:27;;;;;;;;;;;;;;;27.81;38.33;101537.25;107807;1256;124032;-89
2023/06/22 11:53:56;;;;;;;;;;;;;;;27.80;38.29;101532.77;107849;1253;72652;-89
2023/06/22 11:56:30;;;;;;;;;;;;;;;27.70;38.20;101537.44;107938;1256;67041;-89
2023/06/22 11:59:18;;;;;;;;;;;;;;;27.52;38.05;101536.96;107752;1256;123769;-88
2023/06/22 12:01:46;;;;;;;;;;;;;;;27.44;38.13;101527.86;107952;1254;60562;-88
2023/06/22 12:04:15;;;;;;;;;;;;;;;27.32;37.85;101536.14;107417;1254;124859;-88
2023/06/22 12:06:55;;;;;;;;;;;;;;;27.23;38.14;101535.52;107686;1254;72559;-87
2023/06/22 12:09:41;;;;;;;;;;;;;;;27.19;39.09;101532.95;107591;1254;124108;-88
2023/06/22 12:12:17;;;;;;;;;;;;;;;27.21;40.10;101530.92;107617;1256;73396;-88
2023/06/22 12:14:51;;;;;;;;;;;;;;;27.23;40.43;101526.70;107910;1254;59343;-88
2023/06/22 12:17:48;;;;;;;;;;;;;;;27.17;40.92;101526.88;107685;1254;123931;-88
2023/06/22 12:20:25;;;;;;;;;;;;;;;27.23;41.26;101526.69;107455;1254;75025;-87
2023/06/22 12:23:11;;;;;;;;;;;;;;;27.23;41.33;101524.55;107407;1254;123924;-88
2023/06/22 12:25:38;;;;;;;;;;;;;;;27.13;41.42;101521.26;107585;1254;72798;-88
2023/06/22 12:28:05;;;;;;;;;;;;;;;26.95;41.24;101514.80;107538;1253;123662;-88
2023/06/22 12:30:40;;;;;;;;;;;;;;;26.80;41.70;101515.42;107697;1254;58842;-88
2023/06/22 12:33:22;;;;;;;;;;;;;;;26.69;42.18;101518.10;107525;1254;74053;-88
2023/06/22 12:35:58;;;;;;;;;;;;;;;26.57;42.34;101515.38;107419;1258;66908;-89
2023/06/22 12:38:26;;;;;;;;;;;;;;;26.35;42.63;101509.16;107735;1254;72484;-88
2023/06/22 12:41:11;;;;;;;;;;;;;;;26.20;42.75;101515.52;107900;1254;124167;-88
2023/06/22 12:43:49;;;;;;;;;;;;;;;26.05;42.92;101512.69;107815;1253;60517;-88
2023/06/22 12:46:18;;;;;;;;;;;;;;;26.08;43.04;101511.00;107310;1254;124078;-90
2023/06/22 12:48:45;;;;;;;;;;;;;;;26.10;42.66;101510.77;107330;1254;67528;-90
2023/06/22 12:51:30;;;;;;;;;;;;;;;26.11;43.16;101509.48;107539;1253;72707;-87
2023/06/22 12:53:57;;;;;;;;;;;;;;;26.11;43.50;101511.81;107314;1254;60496;-87
2023/06/22 12:56:37;;;;;;;;;;;;;;;26.12;43.68;101508.73;107220;1254;60665;-89